sensor_id;sensor_type;location;lat;lon;timestamp;pressure;altitude;pressure_sealevel;temperature
62107;BMP280;48087;32.600;-97.100;2022-12-07T00:04:05;;;;21.88867
62107;BMP280;48087;32.600;-97.100;2022-12-07T00:09:10;;;;21.77756
62107;BMP280;48087;32.600;-97.100;2022-12-07T00:14:13;;;;21.722004999999996
62107;BMP280;48087;32.600;-97.100;2022-12-07T00:19:16;;;;21.722004999999996
62107;BMP280;48087;32.600;-97.100;2022-12-07T00:24:20;;;;21.66645
62107;BMP280;48087;32.600;-97.100;2022-12-07T00:29:24;;;;21.722004999999996
62107;BMP280;48087;32.600;-97.100;2022-12-07T00:34:28;;;;21.66645
62107;BMP280;48087;32.600;-97.100;2022-12-07T00:39:32;;;;21.66645
62107;BMP280;48087;32.600;-97.100;2022-12-07T00:44:36;;;;21.722004999999996
62107;BMP280;48087;32.600;-97.100;2022-12-07T00:49:40;;;;21.610895000000003
62107;BMP280;48087;32.600;-97.100;2022-12-07T00:54:44;;;;21.610895000000003
62107;BMP280;48087;32.600;-97.100;2022-12-07T00:59:48;;;;21.555339999999998
62107;BMP280;48087;32.600;-97.100;2022-12-07T01:04:52;;;;21.555339999999998
62107;BMP280;48087;32.600;-97.100;2022-12-07T01:09:56;;;;21.555339999999998
62107;BMP280;48087;32.600;-97.100;2022-12-07T01:15:00;;;;21.444229999999997
62107;BMP280;48087;32.600;-97.100;2022-12-07T01:20:04;;;;21.499785000000003
62107;BMP280;48087;32.600;-97.100;2022-12-07T01:25:09;;;;21.388675
62107;BMP280;48087;32.600;-97.100;2022-12-07T01:30:12;;;;21.33312
62107;BMP280;48087;32.600;-97.100;2022-12-07T01:35:16;;;;21.277565
62107;BMP280;48087;32.600;-97.100;2022-12-07T01:40:20;;;;21.166454999999996
62107;BMP280;48087;32.600;-97.100;2022-12-07T01:50:28;;;;21.166454999999996
62107;BMP280;48087;32.600;-97.100;2022-12-07T01:55:32;;;;21.055345000000003
62107;BMP280;48087;32.600;-97.100;2022-12-07T02:00:36;;;;20.944235000000003
62107;BMP280;48087;32.600;-97.100;2022-12-07T02:05:40;;;;20.944235000000003
62107;BMP280;48087;32.600;-97.100;2022-12-07T02:10:43;;;;20.777570000000004
62107;BMP280;48087;32.600;-97.100;2022-12-07T02:15:53;;;;20.722015
62107;BMP280;48087;32.600;-97.100;2022-12-07T02:20:54;;;;20.610904999999995
62107;BMP280;48087;32.600;-97.100;2022-12-07T02:25:59;;;;20.55535
62107;BMP280;48087;32.600;-97.100;2022-12-07T02:31:01;;;;20.55535
62107;BMP280;48087;32.600;-97.100;2022-12-07T02:36:04;;;;20.444239999999997
62107;BMP280;48087;32.600;-97.100;2022-12-07T02:41:09;;;;20.388685000000002
62107;BMP280;48087;32.600;-97.100;2022-12-07T02:46:13;;;;20.333129999999997
62107;BMP280;48087;32.600;-97.100;2022-12-07T02:51:01;;;;20.388685000000002
62107;BMP280;48087;32.600;-97.100;2022-12-07T02:56:06;;;;20.388685000000002
62107;BMP280;48087;32.600;-97.100;2022-12-07T03:01:09;;;;20.333129999999997
62107;BMP280;48087;32.600;-97.100;2022-12-07T03:06:13;;;;20.277575
62107;BMP280;48087;32.600;-97.100;2022-12-07T03:11:16;;;;20.388685000000002
62107;BMP280;48087;32.600;-97.100;2022-12-07T03:16:20;;;;20.277575
62107;BMP280;48087;32.600;-97.100;2022-12-07T03:21:26;;;;20.277575
62107;BMP280;48087;32.600;-97.100;2022-12-07T03:26:29;;;;20.333129999999997
62107;BMP280;48087;32.600;-97.100;2022-12-07T03:31:33;;;;20.388685000000002
62107;BMP280;48087;32.600;-97.100;2022-12-07T03:36:40;;;;20.444239999999997
62107;BMP280;48087;32.600;-97.100;2022-12-07T03:41:39;;;;20.388685000000002
62107;BMP280;48087;32.600;-97.100;2022-12-07T03:46:45;;;;20.388685000000002
62107;BMP280;48087;32.600;-97.100;2022-12-07T03:51:51;;;;20.388685000000002
62107;BMP280;48087;32.600;-97.100;2022-12-07T03:56:52;;;;20.277575
62107;BMP280;48087;32.600;-97.100;2022-12-07T04:02:01;;;;20.277575
62107;BMP280;48087;32.600;-97.100;2022-12-07T04:06:59;;;;20.222020000000004
62107;BMP280;48087;32.600;-97.100;2022-12-07T04:12:05;;;;19.9998
62107;BMP280;48087;32.600;-97.100;2022-12-07T04:17:09;;;;20.055354999999995
62107;BMP280;48087;32.600;-97.100;2022-12-07T04:22:12;;;;19.944245000000002
62107;BMP280;48087;32.600;-97.100;2022-12-07T04:27:15;;;;19.833135000000002
62107;BMP280;48087;32.600;-97.100;2022-12-07T04:32:19;;;;19.722025
62107;BMP280;48087;32.600;-97.100;2022-12-07T04:37:23;;;;19.777579999999997
62107;BMP280;48087;32.600;-97.100;2022-12-07T04:42:29;;;;19.833135000000002
62107;BMP280;48087;32.600;-97.100;2022-12-07T04:47:31;;;;19.777579999999997
62107;BMP280;48087;32.600;-97.100;2022-12-07T04:52:35;;;;19.777579999999997
62107;BMP280;48087;32.600;-97.100;2022-12-07T04:57:39;;;;19.888689999999997
62107;BMP280;48087;32.600;-97.100;2022-12-07T05:02:44;;;;19.888689999999997
62107;BMP280;48087;32.600;-97.100;2022-12-07T05:07:47;;;;19.944245000000002
62107;BMP280;48087;32.600;-97.100;2022-12-07T05:12:51;;;;19.944245000000002
62107;BMP280;48087;32.600;-97.100;2022-12-07T05:17:56;;;;19.944245000000002
62107;BMP280;48087;32.600;-97.100;2022-12-07T05:23:00;;;;19.888689999999997
62107;BMP280;48087;32.600;-97.100;2022-12-07T05:28:04;;;;19.833135000000002
62107;BMP280;48087;32.600;-97.100;2022-12-07T05:33:08;;;;19.888689999999997
62107;BMP280;48087;32.600;-97.100;2022-12-07T05:38:13;;;;19.833135000000002
62107;BMP280;48087;32.600;-97.100;2022-12-07T05:43:15;;;;19.777579999999997
62107;BMP280;48087;32.600;-97.100;2022-12-07T05:48:20;;;;19.777579999999997
62107;BMP280;48087;32.600;-97.100;2022-12-07T05:53:23;;;;19.722025
62107;BMP280;48087;32.600;-97.100;2022-12-07T05:58:27;;;;19.666470000000004
62107;BMP280;48087;32.600;-97.100;2022-12-07T06:03:31;;;;19.610915
62107;BMP280;48087;32.600;-97.100;2022-12-07T06:08:36;;;;19.55536
62107;BMP280;48087;32.600;-97.100;2022-12-07T06:13:40;;;;19.110920000000004
62107;BMP280;48087;32.600;-97.100;2022-12-07T06:18:43;;;;18.277595
62107;BMP280;48087;32.600;-97.100;2022-12-07T06:23:48;;;;18.055374999999998
62107;BMP280;48087;32.600;-97.100;2022-12-07T06:28:51;;;;17.999820000000003
62107;BMP280;48087;32.600;-97.100;2022-12-07T06:33:57;;;;18.055374999999998
62107;BMP280;48087;32.600;-97.100;2022-12-07T06:39:00;;;;17.944264999999998
62107;BMP280;48087;32.600;-97.100;2022-12-07T06:44:04;;;;17.833154999999998
62107;BMP280;48087;32.600;-97.100;2022-12-07T06:49:07;;;;17.7776
62107;BMP280;48087;32.600;-97.100;2022-12-07T06:54:12;;;;17.722044999999998
62107;BMP280;48087;32.600;-97.100;2022-12-07T06:59:15;;;;17.55538
62107;BMP280;48087;32.600;-97.100;2022-12-07T07:04:20;;;;17.499825
62107;BMP280;48087;32.600;-97.100;2022-12-07T07:09:24;;;;17.388714999999998
62107;BMP280;48087;32.600;-97.100;2022-12-07T07:14:27;;;;17.388714999999998
62107;BMP280;48087;32.600;-97.100;2022-12-07T07:19:31;;;;17.388714999999998
62107;BMP280;48087;32.600;-97.100;2022-12-07T07:24:36;;;;17.277605
62107;BMP280;48087;32.600;-97.100;2022-12-07T07:29:39;;;;17.277605
62107;BMP280;48087;32.600;-97.100;2022-12-07T07:34:44;;;;17.22205
62107;BMP280;48087;32.600;-97.100;2022-12-07T07:39:47;;;;17.22205
62107;BMP280;48087;32.600;-97.100;2022-12-07T07:44:51;;;;17.11094
62107;BMP280;48087;32.600;-97.100;2022-12-07T07:49:55;;;;17.11094
62107;BMP280;48087;32.600;-97.100;2022-12-07T07:55:00;;;;17.166494999999998
62107;BMP280;48087;32.600;-97.100;2022-12-07T08:00:04;;;;17.166494999999998
62107;BMP280;48087;32.600;-97.100;2022-12-07T08:05:08;;;;17.166494999999998
62107;BMP280;48087;32.600;-97.100;2022-12-07T08:10:13;;;;17.11094
62107;BMP280;48087;32.600;-97.100;2022-12-07T08:15:14;;;;17.11094
62107;BMP280;48087;32.600;-97.100;2022-12-07T08:20:19;;;;17.166494999999998
62107;BMP280;48087;32.600;-97.100;2022-12-07T08:25:23;;;;17.055385
62107;BMP280;48087;32.600;-97.100;2022-12-07T08:30:27;;;;16.944275
62107;BMP280;48087;32.600;-97.100;2022-12-07T08:35:32;;;;16.88872
62107;BMP280;48087;32.600;-97.100;2022-12-07T08:40:34;;;;16.833164999999997
62107;BMP280;48087;32.600;-97.100;2022-12-07T08:45:41;;;;16.833164999999997
62107;BMP280;48087;32.600;-97.100;2022-12-07T08:50:43;;;;16.833164999999997
62107;BMP280;48087;32.600;-97.100;2022-12-07T08:55:47;;;;16.88872
62107;BMP280;48087;32.600;-97.100;2022-12-07T09:00:50;;;;16.88872
62107;BMP280;48087;32.600;-97.100;2022-12-07T09:05:55;;;;16.833164999999997
62107;BMP280;48087;32.600;-97.100;2022-12-07T09:11:00;;;;16.88872
62107;BMP280;48087;32.600;-97.100;2022-12-07T09:16:02;;;;16.777610000000003
62107;BMP280;48087;32.600;-97.100;2022-12-07T09:21:08;;;;16.777610000000003
62107;BMP280;48087;32.600;-97.100;2022-12-07T09:26:12;;;;16.722055
62107;BMP280;48087;32.600;-97.100;2022-12-07T09:31:15;;;;16.777610000000003
62107;BMP280;48087;32.600;-97.100;2022-12-07T09:36:19;;;;16.722055
62107;BMP280;48087;32.600;-97.100;2022-12-07T09:41:22;;;;16.722055
62107;BMP280;48087;32.600;-97.100;2022-12-07T09:46:26;;;;16.722055
62107;BMP280;48087;32.600;-97.100;2022-12-07T09:51:31;;;;16.722055
62107;BMP280;48087;32.600;-97.100;2022-12-07T09:56:35;;;;16.6665
62107;BMP280;48087;32.600;-97.100;2022-12-07T10:01:39;;;;16.6665
62107;BMP280;48087;32.600;-97.100;2022-12-07T10:06:43;;;;16.55539
62107;BMP280;48087;32.600;-97.100;2022-12-07T10:12:05;;;;16.610944999999997
62107;BMP280;48087;32.600;-97.100;2022-12-07T10:16:51;;;;16.610944999999997
62107;BMP280;48087;32.600;-97.100;2022-12-07T10:22:04;;;;16.610944999999997
62107;BMP280;48087;32.600;-97.100;2022-12-07T10:26:59;;;;16.55539
62107;BMP280;48087;32.600;-97.100;2022-12-07T10:32:03;;;;16.610944999999997
62107;BMP280;48087;32.600;-97.100;2022-12-07T10:37:14;;;;16.55539
62107;BMP280;48087;32.600;-97.100;2022-12-07T10:42:19;;;;16.55539
62107;BMP280;48087;32.600;-97.100;2022-12-07T10:47:19;;;;16.55539
62107;BMP280;48087;32.600;-97.100;2022-12-07T10:52:19;;;;16.499835
62107;BMP280;48087;32.600;-97.100;2022-12-07T10:57:27;;;;16.499835
62107;BMP280;48087;32.600;-97.100;2022-12-07T11:02:32;;;;16.499835
62107;BMP280;48087;32.600;-97.100;2022-12-07T11:07:35;;;;16.499835
62107;BMP280;48087;32.600;-97.100;2022-12-07T11:12:38;;;;16.499835
62107;BMP280;48087;32.600;-97.100;2022-12-07T11:17:42;;;;16.499835
62107;BMP280;48087;32.600;-97.100;2022-12-07T11:22:43;;;;16.55539
62107;BMP280;48087;32.600;-97.100;2022-12-07T11:27:48;;;;16.55539
62107;BMP280;48087;32.600;-97.100;2022-12-07T11:32:55;;;;16.55539
62107;BMP280;48087;32.600;-97.100;2022-12-07T11:37:56;;;;16.499835
62107;BMP280;48087;32.600;-97.100;2022-12-07T11:42:58;;;;16.499835
62107;BMP280;48087;32.600;-97.100;2022-12-07T11:48:04;;;;16.499835
62107;BMP280;48087;32.600;-97.100;2022-12-07T11:53:05;;;;16.44428
62107;BMP280;48087;32.600;-97.100;2022-12-07T11:58:15;;;;16.388725
62107;BMP280;48087;32.600;-97.100;2022-12-07T12:03:15;;;;16.44428
62107;BMP280;48087;32.600;-97.100;2022-12-07T12:08:21;;;;16.388725
62107;BMP280;48087;32.600;-97.100;2022-12-07T12:13:28;;;;16.388725
62107;BMP280;48087;32.600;-97.100;2022-12-07T12:18:31;;;;16.44428
62107;BMP280;48087;32.600;-97.100;2022-12-07T12:23:33;;;;16.44428
62107;BMP280;48087;32.600;-97.100;2022-12-07T12:28:36;;;;16.44428
62107;BMP280;48087;32.600;-97.100;2022-12-07T12:33:38;;;;16.44428
62107;BMP280;48087;32.600;-97.100;2022-12-07T12:38:50;;;;16.388725
62107;BMP280;48087;32.600;-97.100;2022-12-07T12:43:47;;;;16.388725
62107;BMP280;48087;32.600;-97.100;2022-12-07T12:48:52;;;;16.388725
62107;BMP280;48087;32.600;-97.100;2022-12-07T12:53:58;;;;16.388725
62107;BMP280;48087;32.600;-97.100;2022-12-07T12:59:30;;;;16.388725
62107;BMP280;48087;32.600;-97.100;2022-12-07T13:04:02;;;;16.44428
62107;BMP280;48087;32.600;-97.100;2022-12-07T13:09:15;;;;16.388725
62107;BMP280;48087;32.600;-97.100;2022-12-07T13:14:42;;;;16.44428
62107;BMP280;48087;32.600;-97.100;2022-12-07T13:20:39;;;;16.499835
62107;BMP280;48087;32.600;-97.100;2022-12-07T13:24:18;;;;16.55539
62107;BMP280;48087;32.600;-97.100;2022-12-07T13:29:21;;;;16.610944999999997
62107;BMP280;48087;32.600;-97.100;2022-12-07T13:34:28;;;;16.610944999999997
62107;BMP280;48087;32.600;-97.100;2022-12-07T13:39:32;;;;16.6665
62107;BMP280;48087;32.600;-97.100;2022-12-07T13:44:34;;;;16.6665
62107;BMP280;48087;32.600;-97.100;2022-12-07T13:49:38;;;;16.722055
62107;BMP280;48087;32.600;-97.100;2022-12-07T13:54:44;;;;16.777610000000003
62107;BMP280;48087;32.600;-97.100;2022-12-07T13:59:45;;;;16.777610000000003
62107;BMP280;48087;32.600;-97.100;2022-12-07T14:04:49;;;;16.88872
62107;BMP280;48087;32.600;-97.100;2022-12-07T14:09:55;;;;16.944275
62107;BMP280;48087;32.600;-97.100;2022-12-07T14:14:58;;;;16.944275
62107;BMP280;48087;32.600;-97.100;2022-12-07T14:20:02;;;;16.833164999999997
62107;BMP280;48087;32.600;-97.100;2022-12-07T14:25:21;;;;16.833164999999997
62107;BMP280;48087;32.600;-97.100;2022-12-07T14:30:15;;;;16.777610000000003
62107;BMP280;48087;32.600;-97.100;2022-12-07T14:35:14;;;;16.88872
62107;BMP280;48087;32.600;-97.100;2022-12-07T14:40:18;;;;16.88872
62107;BMP280;48087;32.600;-97.100;2022-12-07T14:45:22;;;;16.88872
62107;BMP280;48087;32.600;-97.100;2022-12-07T14:50:25;;;;16.88872
62107;BMP280;48087;32.600;-97.100;2022-12-07T14:55:29;;;;16.944275
62107;BMP280;48087;32.600;-97.100;2022-12-07T15:00:33;;;;17.055385
62107;BMP280;48087;32.600;-97.100;2022-12-07T15:05:37;;;;17.11094
62107;BMP280;48087;32.600;-97.100;2022-12-07T15:10:41;;;;17.22205
62107;BMP280;48087;32.600;-97.100;2022-12-07T15:15:46;;;;17.22205
62107;BMP280;48087;32.600;-97.100;2022-12-07T15:20:50;;;;17.22205
62107;BMP280;48087;32.600;-97.100;2022-12-07T15:25:53;;;;17.277605
62107;BMP280;48087;32.600;-97.100;2022-12-07T15:30:57;;;;17.44427
62107;BMP280;48087;32.600;-97.100;2022-12-07T15:36:01;;;;17.66649
62107;BMP280;48087;32.600;-97.100;2022-12-07T15:41:05;;;;17.7776
62107;BMP280;48087;32.600;-97.100;2022-12-07T21:14:41;;;;28.221939999999996
62107;BMP280;48087;32.600;-97.100;2022-12-07T21:19:44;;;;27.7775
62107;BMP280;48087;32.600;-97.100;2022-12-07T21:24:48;;;;27.721945
62107;BMP280;48087;32.600;-97.100;2022-12-07T21:29:52;;;;27.166395
62107;BMP280;48087;32.600;-97.100;2022-12-07T21:34:56;;;;26.721954999999998
62107;BMP280;48087;32.600;-97.100;2022-12-07T21:40:00;;;;25.721964999999997
62107;BMP280;48087;32.600;-97.100;2022-12-07T21:45:05;;;;25.221970000000002
62107;BMP280;48087;32.600;-97.100;2022-12-07T21:50:08;;;;24.99975
62107;BMP280;48087;32.600;-97.100;2022-12-07T21:55:31;;;;24.833085
62107;BMP280;48087;32.600;-97.100;2022-12-07T22:00:32;;;;24.666420000000002
62107;BMP280;48087;32.600;-97.100;2022-12-07T22:05:36;;;;24.555310000000002
62107;BMP280;48087;32.600;-97.100;2022-12-07T22:10:39;;;;24.499754999999997
62107;BMP280;48087;32.600;-97.100;2022-12-07T22:15:44;;;;24.555310000000002
62107;BMP280;48087;32.600;-97.100;2022-12-07T22:20:47;;;;24.555310000000002
62107;BMP280;48087;32.600;-97.100;2022-12-07T22:25:52;;;;24.388645000000004
62107;BMP280;48087;32.600;-97.100;2022-12-07T22:31:00;;;;24.221979999999995
62107;BMP280;48087;32.600;-97.100;2022-12-07T22:36:00;;;;23.999760000000002
62107;BMP280;48087;32.600;-97.100;2022-12-07T22:41:07;;;;23.833095000000004
62107;BMP280;48087;32.600;-97.100;2022-12-07T22:46:08;;;;23.77754
62107;BMP280;48087;32.600;-97.100;2022-12-07T22:51:19;;;;23.555320000000002
62107;BMP280;48087;32.600;-97.100;2022-12-07T22:56:16;;;;23.388654999999996
62107;BMP280;48087;32.600;-97.100;2022-12-07T23:01:20;;;;23.221989999999998
62107;BMP280;48087;32.600;-97.100;2022-12-07T23:06:25;;;;23.110879999999998
62107;BMP280;48087;32.600;-97.100;2022-12-07T23:11:28;;;;23.055325
62107;BMP280;48087;32.600;-97.100;2022-12-07T23:16:32;;;;22.833104999999996
62107;BMP280;48087;32.600;-97.100;2022-12-07T23:21:35;;;;21.77756
62107;BMP280;48087;32.600;-97.100;2022-12-07T23:26:40;;;;21.1109
62107;BMP280;48087;32.600;-97.100;2022-12-07T23:31:44;;;;20.777570000000004
62107;BMP280;48087;32.600;-97.100;2022-12-07T23:36:48;;;;20.499795000000002
62107;BMP280;48087;32.600;-97.100;2022-12-07T23:41:51;;;;20.222020000000004
62107;BMP280;48087;32.600;-97.100;2022-12-07T23:46:55;;;;20.055354999999995
62107;BMP280;48087;32.600;-97.100;2022-12-07T23:51:59;;;;19.944245000000002
62107;BMP280;48087;32.600;-97.100;2022-12-07T23:57:03;;;;19.722025
